Time;durP1;ratioP1;P1;durP2;ratioP2;P2;SDS_P1;SDS_P2;PMS_P1;PMS_P2;Temp;Humidity;BMP_temperature;BMP_pressure;BME280_temperature;BME280_humidity;BME280_pressure;Samples;Min_cycle;Max_cycle;Signal;HPM_P1;HPM_P2
2023/03/04 00:02:23;;;;;;;33.60;18.50;;;;;;;2.25;67.36;99994.30;108116;1254;61547;-63
2023/03/04 00:04:51;;;;;;;30.10;17.80;;;;;;;2.23;67.41;99991.28;108123;1254;72919;-64
2023/03/04 00:07:22;;;;;;;31.80;19.40;;;;;;;2.22;67.66;99991.13;108130;1254;72492;-64
2023/03/04 00:09:52;;;;;;;31.40;17.80;;;;;;;2.20;67.82;99988.23;108098;1257;72837;-64
2023/03/04 00:12:21;;;;;;;29.10;17.70;;;;;;;2.18;68.07;99986.21;108144;1252;61602;-63
2023/03/04 00:14:50;;;;;;;27.90;17.10;;;;;;;2.17;68.04;99978.66;108074;1254;60752;-64
2023/03/04 00:17:25;;;;;;;30.00;18.90;;;;;;;2.14;68.21;99976.89;108155;1254;73546;-63
2023/03/04 00:19:56;;;;;;;29.80;18.80;;;;;;;2.11;68.26;99978.21;108115;1254;72141;-64
2023/03/04 00:22:25;;;;;;;30.80;18.90;;;;;;;2.08;68.40;99976.20;108152;1257;71823;-64
2023/03/04 00:24:53;;;;;;;31.00;17.60;;;;;;;2.05;68.17;99973.50;108250;1254;61174;-63
2023/03/04 00:27:22;;;;;;;30.70;17.90;;;;;;;2.04;68.62;99969.02;108301;1254;60417;-66
2023/03/04 00:29:50;;;;;;;30.00;17.90;;;;;;;2.02;68.41;99964.07;108223;1255;73971;-64
2023/03/04 00:32:19;;;;;;;28.10;16.80;;;;;;;1.98;68.35;99960.69;108087;1254;72467;-64
2023/03/04 00:34:48;;;;;;;31.40;18.00;;;;;;;1.94;68.75;99964.16;108097;1254;73021;-64
2023/03/04 00:37:16;;;;;;;32.20;20.00;;;;;;;1.92;68.82;99960.86;108130;1254;61292;-64
2023/03/04 00:39:45;;;;;;;30.50;18.10;;;;;;;1.92;68.58;99964.02;108099;1257;60389;-63
2023/03/04 00:42:15;;;;;;;34.70;21.00;;;;;;;1.90;68.89;99965.12;108093;1254;73385;-63
2023/03/04 00:44:45;;;;;;;35.60;19.30;;;;;;;1.88;68.95;99961.78;108095;1253;72342;-64
2023/03/04 00:47:13;;;;;;;32.90;20.10;;;;;;;1.84;68.94;99953.17;108099;1254;73885;-64
2023/03/04 00:49:42;;;;;;;33.50;19.90;;;;;;;1.80;69.18;99952.15;108141;1254;61598;-64
2023/03/04 00:52:10;;;;;;;32.40;18.60;;;;;;;1.80;69.48;99956.52;108130;1254;60437;-64
2023/03/04 00:54:41;;;;;;;36.10;20.80;;;;;;;1.78;69.29;99944.92;108093;1254;75187;-64
2023/03/04 00:57:10;;;;;;;33.60;20.20;;;;;;;1.77;69.60;99944.48;108103;1254;72982;-63
2023/03/04 00:59:39;;;;;;;32.50;19.50;;;;;;;1.77;69.65;99944.08;108135;1254;73480;-64
2023/03/04 01:02:10;;;;;;;35.00;20.60;;;;;;;1.76;70.10;99942.81;108191;1254;60395;-63
2023/03/04 01:04:41;;;;;;;33.50;19.90;;;;;;;1.76;70.08;99939.50;108155;1253;60405;-64
2023/03/04 01:07:11;;;;;;;32.60;18.70;;;;;;;1.80;70.05;99937.08;108184;1254;74086;-64
2023/03/04 01:09:44;;;;;;;34.90;19.80;;;;;;;1.80;70.13;99931.81;108174;1254;73752;-63
2023/03/04 01:12:13;;;;;;;32.10;19.30;;;;;;;1.81;70.12;99931.52;108217;1254;72628;-64
2023/03/04 01:14:41;;;;;;;31.10;19.60;;;;;;;1.84;70.19;99923.96;108055;1259;61598;-64
2023/03/04 01:17:16;;;;;;;33.10;19.70;;;;;;;1.88;70.14;99919.59;108126;1254;60235;-63
2023/03/04 01:19:45;;;;;;;33.30;20.60;;;;;;;1.92;70.08;99919.13;108191;1254;73367;-64
2023/03/04 01:22:15;;;;;;;32.90;20.50;;;;;;;1.93;70.13;99917.33;108112;1257;70881;-63
2023/03/04 01:24:47;;;;;;;30.60;19.20;;;;;;;1.95;69.91;99914.65;108116;1257;73767;-63
2023/03/04 01:27:16;;;;;;;34.00;19.70;;;;;;;1.95;69.81;99912.74;108240;1254;61464;-63
2023/03/04 01:29:44;;;;;;;34.00;20.20;;;;;;;1.92;69.93;99909.98;108255;1254;61087;-63
2023/03/04 01:32:13;;;;;;;29.00;17.50;;;;;;;1.91;69.91;99911.67;108263;1254;74583;-63
2023/03/04 01:34:42;;;;;;;30.10;18.00;;;;;;;1.91;69.84;99906.58;108248;1253;70964;-63
2023/03/04 01:37:12;;;;;;;30.90;18.70;;;;;;;1.91;69.90;99901.83;108255;1253;72053;-64
2023/03/04 01:39:41;;;;;;;29.20;16.90;;;;;;;1.89;69.74;99902.83;108219;1254;60884;-64
2023/03/04 01:42:19;;;;;;;30.00;18.80;;;;;;;1.86;69.58;99903.73;108267;1253;60700;-63
2023/03/04 01:44:52;;;;;;;30.50;19.40;;;;;;;1.81;69.69;99896.36;108137;1253;74548;-63
2023/03/04 01:47:28;;;;;;;28.40;17.20;;;;;;;1.77;69.55;99897.49;108268;1254;73725;-64
2023/03/04 01:49:58;;;;;;;32.10;19.10;;;;;;;1.73;69.46;99901.86;108247;1254;73603;-63
2023/03/04 01:52:27;;;;;;;33.90;20.80;;;;;;;1.70;69.44;99897.05;108265;1254;60440;-64
2023/03/04 01:54:56;;;;;;;30.70;17.40;;;;;;;1.66;69.59;99901.09;108265;1254;60316;-65
2023/03/04 01:57:35;;;;;;;31.10;18.00;;;;;;;1.62;69.53;99901.24;108116;1254;73504;-64
2023/03/04 02:00:18;;;;;;;33.50;19.20;;;;;;;1.57;69.73;99895.81;108098;1254;71636;-64
2023/03/04 02:03:00;;;;;;;30.60;18.30;;;;;;;1.53;69.74;99896.83;108089;1254;73604;-63
2023/03/04 02:05:31;;;;;;;33.60;18.70;;;;;;;1.48;69.86;99896.95;108108;1254;62254;-63
2023/03/04 02:08:07;;;;;;;37.30;20.60;;;;;;;1.44;69.84;99897.29;108102;1254;60488;-63
2023/03/04 02:10:46;;;;;;;31.90;19.40;;;;;;;1.43;70.22;99891.36;108141;1254;74210;-66
2023/03/04 02:13:20;;;;;;;34.00;19.20;;;;;;;1.42;70.23;99884.55;108059;1253;73138;-63
2023/03/04 02:15:52;;;;;;;;;;;;;;;1.39;70.30;99884.91;108176;1253;73562;-62
2023/03/04 02:18:23;;;;;;;31.80;19.20;;;;;;;1.37;70.67;99885.36;108221;1252;60984;-63
2023/03/04 02:21:05;;;;;;;39.30;21.50;;;;;;;1.35;70.82;99887.31;108286;1253;60472;-62
2023/03/04 02:23:49;;;;;;;32.90;19.70;;;;;;;1.35;70.86;99882.21;108299;1253;74468;-63
2023/03/04 02:26:38;;;;;;;36.30;19.90;;;;;;;1.36;70.83;99878.44;108294;1254;73784;-63
2023/03/04 02:29:37;;;;;;;37.00;20.90;;;;;;;1.36;71.26;99875.28;108177;1253;71823;-63
2023/03/04 02:32:23;;;;;;;;;;;;;;;1.37;71.17;99872.20;108121;1254;62608;-63
2023/03/04 02:35:24;;;;;;;41.20;22.40;;;;;;;1.36;71.55;99867.80;108123;1254;60459;-64
2023/03/04 02:38:16;;;;;;;41.80;21.50;;;;;;;1.35;71.53;99866.27;108125;1254;74585;-63
2023/03/04 02:41:18;;;;;;;37.50;22.10;;;;;;;1.36;71.57;99865.52;108116;1254;73409;-63
2023/03/04 02:44:17;;;;;;;41.80;23.90;;;;;;;1.35;71.80;99859.63;108188;1256;71737;-63
2023/03/04 02:47:03;;;;;;;41.40;22.80;;;;;;;1.35;71.92;99858.58;108093;1253;63019;-63
2023/03/04 02:49:42;;;;;;;43.30;24.50;;;;;;;1.35;72.04;99854.23;108166;1253;60267;-64
2023/03/04 02:52:32;;;;;;;42.00;23.70;;;;;;;1.37;72.31;99854.27;108258;1253;74514;-63
2023/03/04 02:55:20;;;;;;;42.20;24.00;;;;;;;1.39;72.11;99857.45;108245;1253;73609;-63
2023/03/04 02:58:21;;;;;;;45.70;25.40;;;;;;;1.41;72.38;99842.70;108228;1254;73180;-63
2023/03/04 03:01:12;;;;;;;41.00;23.80;;;;;;;1.43;72.41;99833.10;108238;1252;61271;-63
2023/03/04 03:03:42;;;;;;;41.70;24.30;;;;;;;1.43;72.21;99832.34;108117;1254;60384;-64
2023/03/04 03:06:17;;;;;;;41.60;24.00;;;;;;;1.42;72.25;99823.59;107926;1253;73203;-63
2023/03/04 03:09:01;;;;;;;45.60;24.80;;;;;;;1.42;72.33;99825.21;108227;1253;71057;-64
2023/03/04 03:11:36;;;;;;;43.70;25.00;;;;;;;1.43;72.48;99830.84;108262;1254;72613;-64
2023/03/04 03:14:23;;;;;;;46.00;25.70;;;;;;;1.45;72.59;99825.42;108217;1254;60489;-64
2023/03/04 03:17:11;;;;;;;41.90;24.20;;;;;;;1.47;72.44;99825.15;107980;1254;60431;-64
2023/03/04 03:19:40;;;;;;;43.50;23.50;;;;;;;1.49;72.50;99823.29;107979;1254;73372;-63
2023/03/04 03:22:10;;;;;;;41.10;22.60;;;;;;;1.51;72.47;99822.61;108140;1253;73231;-64
2023/03/04 03:24:39;;;;;;;43.10;24.70;;;;;;;1.51;72.32;99814.44;108277;1254;71991;-64
2023/03/04 03:27:07;;;;;;;43.70;24.50;;;;;;;1.53;72.25;99812.77;108274;1253;60419;-66
2023/03/04 03:29:38;;;;;;;42.10;23.70;;;;;;;1.54;72.21;99812.19;108253;1253;60742;-64
2023/03/04 03:32:07;;;;;;;44.30;24.00;;;;;;;1.55;72.11;99814.09;108250;1254;74512;-63
2023/03/04 03:34:38;;;;;;;40.90;23.80;;;;;;;1.57;72.32;99812.20;108263;1253;74208;-63
2023/03/04 03:37:06;;;;;;;39.90;22.00;;;;;;;1.59;72.05;99805.80;108279;1253;73535;-62
2023/03/04 03:39:41;;;;;;;44.80;24.70;;;;;;;1.59;72.19;99813.40;108097;1253;60453;-62
2023/03/04 03:42:09;;;;;;;44.10;24.20;;;;;;;1.63;72.03;99806.41;108102;1253;60922;-63
2023/03/04 03:44:38;;;;;;;45.20;24.20;;;;;;;1.64;71.97;99809.59;108200;1253;74838;-62
2023/03/04 03:47:07;;;;;;;43.00;25.20;;;;;;;1.66;71.76;99811.27;108269;1253;72037;-62
2023/03/04 03:49:35;;;;;;;45.40;23.80;;;;;;;1.68;71.76;99813.29;108250;1254;72816;-63
2023/03/04 03:52:04;;;;;;;42.40;23.00;;;;;;;1.69;71.82;99806.59;108279;1253;60485;-65
2023/03/04 03:54:33;;;;;;;46.00;25.70;;;;;;;1.73;71.69;99805.59;108271;1254;60438;-63
2023/03/04 03:57:05;;;;;;;43.80;23.40;;;;;;;1.76;71.59;99803.77;108218;1254;72923;-61
2023/03/04 03:59:35;;;;;;;43.00;24.40;;;;;;;1.76;71.45;99802.64;108249;1253;72419;-62
2023/03/04 04:02:04;;;;;;;42.20;23.00;;;;;;;1.79;71.27;99800.98;108272;1254;72701;-63
2023/03/04 04:04:32;;;;;;;41.00;24.00;;;;;;;1.81;71.15;99792.14;108254;1252;61712;-64
2023/03/04 04:07:01;;;;;;;39.20;23.00;;;;;;;1.82;71.08;99795.45;108245;1253;61454;-63
2023/03/04 04:09:30;;;;;;;46.50;25.60;;;;;;;1.85;71.32;99796.42;108252;1253;73841;-62
2023/03/04 04:11:59;;;;;;;42.20;24.20;;;;;;;1.91;71.13;99788.59;108207;1253;71949;-63
2023/03/04 04:14:31;;;;;;;42.20;25.00;;;;;;;1.96;71.06;99783.64;108098;1253;73526;-63
2023/03/04 04:17:00;;;;;;;43.50;23.80;;;;;;;2.02;71.00;99772.99;108070;1253;61279;-63
2023/03/04 04:19:28;;;;;;;43.80;23.30;;;;;;;2.07;71.03;99763.98;108093;1253;60435;-63
2023/03/04 04:21:57;;;;;;;39.40;22.60;;;;;;;2.13;70.76;99766.15;108128;1254;73057;-63
2023/03/04 04:24:26;;;;;;;45.10;24.30;;;;;;;2.19;70.72;99769.52;108135;1253;72986;-64
2023/03/04 04:27:00;;;;;;;42.90;23.40;;;;;;;2.25;70.28;99765.15;108109;1254;72953;-64
2023/03/04 04:29:29;;;;;;;40.00;23.40;;;;;;;2.31;70.07;99756.68;108107;1253;60981;-63
2023/03/04 04:31:59;;;;;;;37.10;21.50;;;;;;;2.37;70.12;99755.06;108105;1253;61126;-63
2023/03/04 04:34:28;;;;;;;37.10;21.50;;;;;;;2.43;69.70;99751.52;108086;1253;73587;-65
2023/03/04 04:36:56;;;;;;;37.50;21.10;;;;;;;2.48;69.57;99746.92;108107;1253;72195;-64
2023/03/04 04:39:25;;;;;;;40.30;22.30;;;;;;;2.55;69.36;99736.50;104174;1253;5250460;-64
2023/03/04 04:41:53;;;;;;;38.60;20.70;;;;;;;2.59;69.19;99728.02;108134;1253;60619;-63
2023/03/04 04:44:22;;;;;;;39.60;21.80;;;;;;;2.64;68.96;99720.27;108195;1254;73868;-62
2023/03/04 04:46:50;;;;;;;37.80;21.50;;;;;;;2.70;69.04;99712.78;108096;1253;71882;-63
2023/03/04 04:49:19;;;;;;;40.40;22.20;;;;;;;2.77;68.98;99713.65;108097;1253;72968;-63
2023/03/04 04:51:48;;;;;;;38.60;21.00;;;;;;;2.84;68.74;99702.52;108116;1253;62192;-63
2023/03/04 04:54:17;;;;;;;35.00;20.70;;;;;;;2.90;68.44;99699.06;108170;1253;61038;-62
2023/03/04 04:56:46;;;;;;;37.20;21.90;;;;;;;2.92;68.25;99690.30;108161;1253;74316;-63
2023/03/04 04:59:14;;;;;;;36.40;21.20;;;;;;;2.94;68.14;99696.03;108152;1253;72148;-63
2023/03/04 05:01:45;;;;;;;34.70;21.40;;;;;;;2.99;67.93;99700.04;108102;1253;73795;-64
2023/03/04 05:04:14;;;;;;;38.90;21.70;;;;;;;3.03;67.87;99696.80;108153;1253;61373;-63
2023/03/04 05:06:42;;;;;;;42.60;23.40;;;;;;;3.08;67.87;99683.46;108142;1253;60868;-63
2023/03/04 05:09:12;;;;;;;36.00;21.80;;;;;;;3.11;67.46;99682.16;108108;1253;72825;-63
2023/03/04 05:11:41;;;;;;;37.70;22.10;;;;;;;3.09;67.18;99679.79;108174;1254;73971;-63
2023/03/04 05:14:09;;;;;;;38.50;21.50;;;;;;;3.09;67.30;99678.05;108252;1253;71760;-63
2023/03/04 05:16:39;;;;;;;36.70;21.30;;;;;;;3.10;66.92;99671.58;108239;1254;61379;-62
2023/03/04 05:19:08;;;;;;;34.80;20.60;;;;;;;3.12;66.80;99666.55;108234;1253;61025;-65
2023/03/04 05:21:36;;;;;;;38.40;21.00;;;;;;;3.13;66.83;99658.39;108123;1253;74888;-63
2023/03/04 05:24:05;;;;;;;33.70;20.50;;;;;;;3.18;66.60;99660.08;108101;1253;73537;-63
2023/03/04 05:26:38;;;;;;;35.30;20.60;;;;;;;3.22;66.43;99661.24;108136;1253;72835;-64
2023/03/04 05:29:06;;;;;;;35.80;20.60;;;;;;;3.26;66.48;99663.34;108108;1254;60424;-62
2023/03/04 05:31:36;;;;;;;37.00;21.30;;;;;;;3.30;66.18;99662.77;108136;1253;60351;-64
2023/03/04 05:34:05;;;;;;;34.60;19.50;;;;;;;3.31;66.06;99665.66;108090;1254;73803;-63
2023/03/04 05:36:33;;;;;;;33.50;19.40;;;;;;;3.29;65.77;99662.14;108106;1253;73726;-63
2023/03/04 05:39:03;;;;;;;34.40;19.50;;;;;;;3.29;65.72;99658.66;108086;1254;73799;-64
2023/03/04 05:41:31;;;;;;;33.50;19.50;;;;;;;3.31;65.56;99656.68;108148;1253;62040;-63
2023/03/04 05:44:01;;;;;;;35.00;20.20;;;;;;;3.35;65.62;99653.88;108165;1254;60289;-63
2023/03/04 05:46:30;;;;;;;33.90;19.00;;;;;;;3.39;65.42;99652.05;108259;1252;73079;-64
2023/03/04 05:49:01;;;;;;;35.00;19.70;;;;;;;3.42;65.16;99648.26;108270;1253;73936;-63
2023/03/04 05:51:29;;;;;;;31.50;18.20;;;;;;;3.46;65.16;99642.42;108243;1253;71770;-66
2023/03/04 05:53:58;;;;;;;32.80;18.90;;;;;;;3.51;64.77;99638.27;108189;1254;60244;-65
2023/03/04 05:56:26;;;;;;;32.40;18.40;;;;;;;3.55;64.41;99628.98;108242;1253;60496;-65
2023/03/04 05:58:57;;;;;;;36.00;19.70;;;;;;;3.57;64.14;99638.27;108249;1252;73311;-64
2023/03/04 06:01:26;;;;;;;34.00;18.20;;;;;;;3.60;63.89;99637.85;108209;1253;73113;-66
2023/03/04 06:03:55;;;;;;;34.10;18.80;;;;;;;3.60;63.50;99640.55;108201;1254;72599;-66
2023/03/04 06:06:23;;;;;;;31.80;17.80;;;;;;;3.59;62.89;99650.95;108235;1254;60457;-66
2023/03/04 06:08:52;;;;;;;34.00;20.10;;;;;;;3.58;62.93;99639.98;108277;1253;60434;-64
2023/03/04 06:11:20;;;;;;;29.60;17.50;;;;;;;3.62;62.90;99630.09;108177;1253;73431;-64
2023/03/04 06:13:54;;;;;;;31.60;18.00;;;;;;;3.68;62.69;99623.07;108237;1253;72281;-63
2023/03/04 06:16:23;;;;;;;31.20;18.10;;;;;;;3.74;62.46;99615.10;108294;1254;71580;-65
2023/03/04 06:18:52;;;;;;;35.00;17.60;;;;;;;3.78;62.16;99623.16;108221;1252;60348;-64
2023/03/04 06:21:20;;;;;;;33.80;17.80;;;;;;;3.80;61.74;99618.39;108279;1253;60447;-65
2023/03/04 06:23:49;;;;;;;32.70;18.70;;;;;;;3.80;61.59;99614.16;108254;1254;73591;-64
2023/03/04 06:26:17;;;;;;;31.10;17.60;;;;;;;3.81;61.50;99614.02;108203;1256;71701;-64
2023/03/04 06:28:46;;;;;;;32.80;18.00;;;;;;;3.87;61.61;99613.61;108120;1257;72340;-65
2023/03/04 06:31:15;;;;;;;30.80;17.10;;;;;;;3.93;61.41;99604.16;108107;1254;60442;-64
2023/03/04 06:33:45;;;;;;;32.70;18.50;;;;;;;4.01;61.21;99598.02;108206;1253;60428;-64
2023/03/04 06:36:13;;;;;;;30.10;17.10;;;;;;;4.08;61.04;99598.98;108208;1253;75041;-64
2023/03/04 06:38:42;;;;;;;30.50;17.20;;;;;;;4.13;60.81;99593.84;108198;1253;72469;-64
2023/03/04 06:41:11;;;;;;;33.90;18.20;;;;;;;4.16;60.45;99592.73;108162;1253;72327;-63
2023/03/04 06:43:39;;;;;;;31.40;17.40;;;;;;;4.19;60.36;99591.31;108165;1253;60705;-63
2023/03/04 06:46:08;;;;;;;31.50;17.10;;;;;;;4.24;60.39;99584.93;108244;1254;60431;-66
2023/03/04 06:48:37;;;;;;;32.70;18.80;;;;;;;4.28;60.21;99584.11;108279;1253;72826;-65
2023/03/04 06:51:08;;;;;;;33.10;18.60;;;;;;;4.28;59.99;99585.10;108288;1254;72607;-65
2023/03/04 06:53:38;;;;;;;34.40;18.80;;;;;;;4.21;60.05;99583.77;108248;1253;72404;-64
2023/03/04 06:56:16;;;;;;;32.50;17.40;;;;;;;4.21;60.05;99576.33;108222;1253;60406;-65
2023/03/04 06:58:45;;;;;;;33.10;19.10;;;;;;;4.27;60.21;99565.27;108272;1253;60457;-64
2023/03/04 07:01:18;;;;;;;32.80;19.40;;;;;;;4.31;60.07;99572.52;108289;1254;74041;-65
2023/03/04 07:03:47;;;;;;;34.50;19.40;;;;;;;4.36;60.16;99559.85;108222;1256;72138;-65
2023/03/04 07:06:17;;;;;;;33.00;19.20;;;;;;;4.46;60.25;99567.26;108299;1253;74291;-64
2023/03/04 07:08:48;;;;;;;32.40;19.00;;;;;;;4.56;59.85;99553.91;108310;1254;60321;-67
2023/03/04 07:11:17;;;;;;;33.90;19.50;;;;;;;4.63;59.92;99548.27;108315;1253;60520;-65
2023/03/04 07:13:46;;;;;;;33.50;19.40;;;;;;;4.66;59.63;99548.46;108283;1253;75049;-64
2023/03/04 07:16:17;;;;;;;36.30;19.40;;;;;;;4.65;59.61;99538.24;108285;1253;72150;-64
2023/03/04 07:18:45;;;;;;;34.80;20.10;;;;;;;4.63;59.67;99538.10;108186;1253;71996;-64
2023/03/04 07:21:16;;;;;;;37.10;21.80;;;;;;;4.69;59.74;99535.12;108112;1253;62053;-65
2023/03/04 07:23:44;;;;;;;39.00;21.20;;;;;;;4.75;59.61;99527.33;108218;1253;60370;-65
2023/03/04 07:26:13;;;;;;;39.20;21.70;;;;;;;4.79;59.28;99522.30;108124;1253;74266;-64
2023/03/04 07:28:42;;;;;;;42.90;22.30;;;;;;;4.83;59.10;99522.73;108219;1253;71875;-64
2023/03/04 07:31:28;;;;;;;39.40;22.70;;;;;;;4.86;58.88;99520.55;108184;1253;73441;-66
2023/03/04 07:33:59;;;;;;;41.00;23.20;;;;;;;4.88;58.77;99513.23;108104;1253;61176;-65
2023/03/04 07:36:30;;;;;;;39.60;22.80;;;;;;;4.99;58.66;99503.91;108119;1253;60438;-65
2023/03/04 07:39:01;;;;;;;40.50;22.50;;;;;;;5.10;58.52;99500.79;108107;1253;74054;-65
2023/03/04 07:41:30;;;;;;;41.10;23.90;;;;;;;5.22;58.17;99503.09;108137;1253;71952;-65
2023/03/04 07:43:58;;;;;;;42.80;24.20;;;;;;;5.31;57.75;99490.98;108212;1254;72921;-65
2023/03/04 07:46:27;;;;;;;42.00;24.80;;;;;;;5.35;57.29;99496.24;108286;1252;60296;-65
2023/03/04 07:48:55;;;;;;;38.40;23.80;;;;;;;5.37;56.86;99493.75;108287;1252;60306;-64
2023/03/04 07:51:24;;;;;;;44.10;24.20;;;;;;;5.40;56.78;99494.92;108331;1253;73072;-64
2023/03/04 07:53:55;;;;;;;40.20;23.90;;;;;;;5.45;56.47;99495.72;108266;1252;72945;-64
2023/03/04 07:56:25;;;;;;;43.30;24.00;;;;;;;5.45;56.08;99488.56;108220;1254;72015;-64
2023/03/04 07:58:55;;;;;;;41.00;23.30;;;;;;;5.52;56.21;99480.44;108290;1252;60554;-63
2023/03/04 08:01:31;;;;;;;41.30;22.90;;;;;;;5.56;55.85;99465.48;108333;1253;60437;-64
2023/03/04 08:04:00;;;;;;;39.90;24.30;;;;;;;5.64;55.76;99467.04;108329;1254;73587;-64
2023/03/04 08:06:28;;;;;;;42.90;24.80;;;;;;;5.72;55.51;99462.55;108300;1253;71174;-64
2023/03/04 08:09:02;;;;;;;42.70;24.40;;;;;;;5.79;55.16;99463.67;108188;1256;73449;-63
2023/03/04 08:11:32;;;;;;;47.20;26.60;;;;;;;5.75;54.44;99456.70;108119;1253;60530;-64
2023/03/04 08:14:00;;;;;;;44.00;24.30;;;;;;;5.72;54.50;99466.58;108105;1253;60526;-64
2023/03/04 08:16:34;;;;;;;42.00;23.90;;;;;;;5.67;54.26;99466.55;108244;1253;74433;-65
2023/03/04 08:19:03;;;;;;;43.70;24.80;;;;;;;5.63;54.12;99460.77;108245;1254;73090;-64
2023/03/04 08:21:32;;;;;;;42.80;23.40;;;;;;;5.63;53.84;99454.26;108312;1254;73106;-64
2023/03/04 08:24:06;;;;;;;41.90;23.00;;;;;;;5.59;53.88;99461.96;108331;1252;60329;-64
2023/03/04 08:26:40;;;;;;;39.30;23.00;;;;;;;5.58;53.79;99460.41;108237;1253;60239;-64
2023/03/04 08:29:11;;;;;;;42.70;23.40;;;;;;;5.58;53.73;99462.16;108186;1253;73065;-63
2023/03/04 08:31:41;;;;;;;43.00;23.20;;;;;;;5.61;53.64;99449.10;108168;1253;73933;-65
2023/03/04 08:34:11;;;;;;;36.70;21.00;;;;;;;5.67;53.68;99466.37;108149;1253;73697;-63
2023/03/04 08:36:44;;;;;;;41.00;24.40;;;;;;;5.70;53.48;99460.20;108164;1253;60309;-65
2023/03/04 08:39:13;;;;;;;41.60;24.20;;;;;;;5.79;53.63;99453.23;108181;1253;60346;-67
2023/03/04 08:41:42;;;;;;;39.30;23.20;;;;;;;5.87;53.18;99454.56;108158;1253;75060;-64
2023/03/04 08:44:10;;;;;;;37.10;22.20;;;;;;;5.91;52.81;99463.19;108090;1253;71703;-63
2023/03/04 08:46:39;;;;;;;43.40;24.70;;;;;;;5.88;52.66;99465.40;108200;1253;72788;-63
2023/03/04 08:49:13;;;;;;;39.20;21.50;;;;;;;5.84;52.36;99454.61;108253;1254;60293;-66
2023/03/04 08:51:44;;;;;;;40.60;21.90;;;;;;;5.77;52.09;99456.08;108326;1252;59966;-64
2023/03/04 08:54:12;;;;;;;37.70;21.40;;;;;;;5.70;52.16;99458.41;108287;1253;73792;-64
2023/03/04 08:56:42;;;;;;;37.40;22.50;;;;;;;5.71;52.37;99444.06;108223;1254;72827;-64
2023/03/04 08:59:11;;;;;;;37.90;21.20;;;;;;;5.76;52.47;99448.70;108155;1256;71547;-66
2023/03/04 09:01:39;;;;;;;39.40;23.10;;;;;;;5.74;52.42;99455.80;108217;1254;60700;-65
2023/03/04 09:04:09;;;;;;;36.40;20.70;;;;;;;5.80;52.51;99452.66;108259;1253;60415;-64
2023/03/04 09:06:39;;;;;;;37.70;21.10;;;;;;;5.84;51.66;99448.25;108304;1254;74989;-64
2023/03/04 09:09:08;;;;;;;37.20;20.60;;;;;;;5.84;51.33;99451.63;108274;1254;73254;-64
2023/03/04 09:11:40;;;;;;;37.30;22.30;;;;;;;5.90;51.73;99451.90;108146;1253;73966;-65
2023/03/04 09:14:08;;;;;;;36.30;21.70;;;;;;;6.00;52.06;99444.36;108245;1254;60501;-64
2023/03/04 09:16:40;;;;;;;37.20;21.40;;;;;;;6.13;51.96;99437.94;108241;1252;60339;-64
2023/03/04 09:19:12;;;;;;;40.30;23.10;;;;;;;6.26;51.42;99434.52;108254;1254;74032;-64
2023/03/04 09:21:45;;;;;;;37.20;20.70;;;;;;;6.28;50.70;99436.02;108316;1253;73930;-65
2023/03/04 09:24:23;;;;;;;38.50;21.50;;;;;;;6.27;50.21;99436.92;108250;1254;71275;-65
2023/03/04 09:26:54;;;;;;;33.80;18.20;;;;;;;6.27;49.84;99429.39;108334;1253;60414;-64
2023/03/04 09:29:26;;;;;;;33.60;18.70;;;;;;;6.22;49.36;99431.59;108349;1252;60104;-64
2023/03/04 09:31:58;;;;;;;35.50;21.00;;;;;;;6.14;49.53;99425.86;108270;1254;74911;-63
2023/03/04 09:34:29;;;;;;;35.00;19.70;;;;;;;6.14;49.73;99420.28;108220;1253;72007;-65
2023/03/04 09:37:03;;;;;;;37.70;21.00;;;;;;;6.19;49.71;99421.92;108120;1253;72503;-63
2023/03/04 09:39:36;;;;;;;32.20;19.00;;;;;;;6.22;49.07;99429.63;108100;1253;60444;-64
2023/03/04 09:42:33;;;;;;;36.30;19.10;;;;;;;6.27;48.90;99426.27;108141;1253;60699;-64
2023/03/04 09:45:47;;;;;;;35.10;18.80;;;;;;;6.32;48.76;99418.27;108196;1252;74085;-64
2023/03/04 09:48:54;;;;;;;34.50;18.70;;;;;;;6.43;48.24;99418.45;108126;1253;73629;-63
2023/03/04 09:52:02;;;;;;;32.30;19.20;;;;;;;6.36;47.88;99415.87;108234;1252;73353;-63
2023/03/04 09:55:26;;;;;;;34.20;18.80;;;;;;;6.27;47.95;99412.68;108254;1254;60298;-65
2023/03/04 09:58:38;;;;;;;30.90;18.00;;;;;;;6.16;48.43;99416.00;108287;1253;61373;-64
2023/03/04 10:01:46;;;;;;;33.50;18.80;;;;;;;6.19;48.72;99412.16;108079;1253;73016;-62
2023/03/04 10:05:01;;;;;;;33.00;18.10;;;;;;;6.27;48.32;99411.30;108131;1253;73014;-65
2023/03/04 10:08:04;;;;;;;32.70;17.20;;;;;;;6.28;48.16;99409.55;108102;1257;72871;-65
2023/03/04 10:11:07;;;;;;;32.30;18.70;;;;;;;6.31;48.12;99404.42;108046;1253;60326;-62
2023/03/04 10:14:20;;;;;;;32.80;18.80;;;;;;;6.33;48.05;99407.20;108026;1253;60911;-64
2023/03/04 10:17:25;;;;;;;34.30;19.50;;;;;;;6.37;48.08;99400.38;108264;1254;74820;-64
2023/03/04 10:20:25;;;;;;;30.10;17.70;;;;;;;6.41;48.30;99402.31;108239;1253;72995;-64
2023/03/04 10:23:13;;;;;;;33.20;19.40;;;;;;;6.29;48.02;99407.49;108235;1253;71620;-65
2023/03/04 10:25:52;;;;;;;32.60;19.20;;;;;;;6.16;48.46;99394.85;108070;1253;60418;-65
2023/03/04 10:28:37;;;;;;;35.20;19.70;;;;;;;6.05;48.68;99397.86;108122;1253;60447;-64
2023/03/04 10:31:44;;;;;;;31.50;17.70;;;;;;;6.01;48.91;99392.00;108086;1254;74538;-63
2023/03/04 10:34:40;;;;;;;34.20;19.90;;;;;;;5.89;49.09;99392.26;107998;1253;72741;-64
2023/03/04 10:37:24;;;;;;;34.90;19.60;;;;;;;5.84;49.46;99386.55;108094;1253;72430;-64
2023/03/04 10:39:58;;;;;;;37.60;21.20;;;;;;;5.77;49.66;99379.81;108115;1253;60533;-64
2023/03/04 10:42:36;;;;;;;31.90;18.50;;;;;;;5.71;50.12;99394.66;108084;1253;61501;-65
2023/03/04 10:45:36;;;;;;;33.00;19.30;;;;;;;5.65;50.22;99383.33;108113;1253;74722;-67
2023/03/04 10:48:58;;;;;;;31.80;19.00;;;;;;;5.61;50.38;99378.96;108141;1254;73735;-65
2023/03/04 10:51:27;;;;;;;35.20;20.00;;;;;;;5.61;50.54;99374.19;108296;1254;73883;-64
2023/03/04 10:54:10;;;;;;;32.00;19.10;;;;;;;5.59;50.72;99369.30;108311;1253;60406;-64
2023/03/04 10:56:45;;;;;;;34.80;19.40;;;;;;;5.58;50.58;99370.88;108329;1253;60634;-63
2023/03/04 10:59:42;;;;;;;34.40;19.10;;;;;;;5.56;50.16;99380.62;108229;1253;74151;-64
2023/03/04 11:02:17;;;;;;;30.80;18.60;;;;;;;5.51;50.00;99375.48;108225;1253;72767;-63
2023/03/04 11:04:52;;;;;;;41.60;25.40;;;;;;;5.49;50.22;99366.77;108155;1254;73355;-66
2023/03/04 11:07:24;;;;;;;47.60;29.90;;;;;;;5.54;50.34;99370.59;108245;1254;60756;-64
2023/03/04 11:09:53;;;;;;;34.10;21.70;;;;;;;5.54;50.31;99364.88;108164;1258;60446;-63
2023/03/04 11:12:33;;;;;;;30.60;17.90;;;;;;;5.49;49.87;99382.14;108307;1254;73348;-65
2023/03/04 11:15:03;;;;;;;28.00;17.70;;;;;;;5.36;49.62;99371.48;108322;1252;71743;-64
2023/03/04 11:18:09;;;;;;;29.40;18.00;;;;;;;5.26;49.91;99361.93;108131;1253;71852;-64
2023/03/04 11:20:47;;;;;;;28.70;18.90;;;;;;;5.22;50.07;99359.46;107760;1253;60440;-64
2023/03/04 11:23:31;;;;;;;27.00;17.60;;;;;;;5.22;50.12;99360.88;108095;1253;60411;-64
2023/03/04 11:26:05;;;;;;;26.10;16.90;;;;;;;5.29;50.15;99349.67;108108;1253;74765;-66
2023/03/04 11:28:42;;;;;;;24.90;15.10;;;;;;;5.32;49.55;99342.77;108079;1253;72036;-63
2023/03/04 11:31:29;;;;;;;27.90;15.90;;;;;;;5.32;49.41;99335.08;108081;1253;72193;-64
2023/03/04 11:34:12;;;;;;;25.90;16.50;;;;;;;5.40;49.07;99335.89;108108;1253;60356;-64
2023/03/04 11:36:53;;;;;;;26.30;15.80;;;;;;;5.52;49.03;99316.96;108086;1253;61298;-66
2023/03/04 11:39:31;;;;;;;25.60;15.90;;;;;;;5.61;48.83;99321.75;108154;1253;73160;-65
2023/03/04 11:42:44;;;;;;;24.30;14.10;;;;;;;5.71;48.60;99316.20;108219;1254;73830;-63
2023/03/04 11:45:15;;;;;;;24.60;14.50;;;;;;;5.80;48.31;99306.45;108085;1253;73703;-64
2023/03/04 11:48:04;;;;;;;25.30;15.80;;;;;;;5.83;47.83;99318.61;108298;1254;60395;-63
2023/03/04 11:50:35;;;;;;;27.10;16.80;;;;;;;5.86;47.79;99302.14;108250;1253;60660;-63
2023/03/04 11:53:26;;;;;;;25.80;15.60;;;;;;;5.95;47.72;99313.71;108216;1258;74633;-63